sensor_id;sensor_type;location;lat;lon;timestamp;P1;durP1;ratioP1;P2;durP2;ratioP2
3601;SDS011;1815;50.950;6.920;2022-07-29T00:00:05;2.47;;;1.10;;
3601;SDS011;1815;50.950;6.920;2022-07-29T00:02:33;2.53;;;0.90;;
3601;SDS011;1815;50.950;6.920;2022-07-29T00:04:59;1.83;;;0.70;;
3601;SDS011;1815;50.950;6.920;2022-07-29T00:07:26;5.80;;;1.00;;
3601;SDS011;1815;50.950;6.920;2022-07-29T00:09:52;2.33;;;1.20;;
3601;SDS011;1815;50.950;6.920;2022-07-29T00:12:18;1.60;;;0.80;;
3601;SDS011;1815;50.950;6.920;2022-07-29T00:14:46;1.90;;;0.80;;
3601;SDS011;1815;50.950;6.920;2022-07-29T00:17:12;3.73;;;1.07;;
3601;SDS011;1815;50.950;6.920;2022-07-29T00:19:38;2.60;;;0.70;;
3601;SDS011;1815;50.950;6.920;2022-07-29T00:22:03;2.70;;;0.80;;
3601;SDS011;1815;50.950;6.920;2022-07-29T00:24:29;3.00;;;0.77;;
3601;SDS011;1815;50.950;6.920;2022-07-29T00:26:55;2.47;;;0.80;;
3601;SDS011;1815;50.950;6.920;2022-07-29T00:29:21;1.87;;;0.77;;
3601;SDS011;1815;50.950;6.920;2022-07-29T00:31:47;2.33;;;0.97;;
3601;SDS011;1815;50.950;6.920;2022-07-29T00:34:13;3.93;;;1.00;;
3601;SDS011;1815;50.950;6.920;2022-07-29T00:36:57;3.60;;;0.90;;
3601;SDS011;1815;50.950;6.920;2022-07-29T00:39:23;1.53;;;0.63;;
3601;SDS011;1815;50.950;6.920;2022-07-29T00:41:49;3.63;;;1.00;;
3601;SDS011;1815;50.950;6.920;2022-07-29T00:44:15;2.67;;;0.97;;
3601;SDS011;1815;50.950;6.920;2022-07-29T00:46:41;3.73;;;0.90;;
3601;SDS011;1815;50.950;6.920;2022-07-29T00:49:07;3.10;;;1.03;;
3601;SDS011;1815;50.950;6.920;2022-07-29T00:51:36;4.10;;;0.90;;
3601;SDS011;1815;50.950;6.920;2022-07-29T00:54:03;2.70;;;1.43;;
3601;SDS011;1815;50.950;6.920;2022-07-29T00:56:30;1.53;;;0.83;;
3601;SDS011;1815;50.950;6.920;2022-07-29T00:58:56;2.23;;;1.20;;
3601;SDS011;1815;50.950;6.920;2022-07-29T01:01:22;2.10;;;0.90;;
3601;SDS011;1815;50.950;6.920;2022-07-29T01:03:48;2.20;;;1.00;;
3601;SDS011;1815;50.950;6.920;2022-07-29T01:06:15;2.17;;;1.00;;
3601;SDS011;1815;50.950;6.920;2022-07-29T01:08:44;2.10;;;0.90;;
3601;SDS011;1815;50.950;6.920;2022-07-29T01:11:12;2.50;;;1.00;;
3601;SDS011;1815;50.950;6.920;2022-07-29T01:13:40;1.67;;;0.80;;
3601;SDS011;1815;50.950;6.920;2022-07-29T01:16:10;1.67;;;0.80;;
3601;SDS011;1815;50.950;6.920;2022-07-29T01:18:44;2.43;;;0.80;;
3601;SDS011;1815;50.950;6.920;2022-07-29T01:29:24;2.17;;;0.90;;
3601;SDS011;1815;50.950;6.920;2022-07-29T01:37:35;3.10;;;0.80;;
3601;SDS011;1815;50.950;6.920;2022-07-29T01:40:31;2.07;;;0.70;;
3601;SDS011;1815;50.950;6.920;2022-07-29T01:42:58;2.83;;;1.00;;
3601;SDS011;1815;50.950;6.920;2022-07-29T01:45:40;3.60;;;0.97;;
3601;SDS011;1815;50.950;6.920;2022-07-29T01:50:53;2.27;;;1.00;;
3601;SDS011;1815;50.950;6.920;2022-07-29T01:56:15;3.47;;;1.00;;
3601;SDS011;1815;50.950;6.920;2022-07-29T01:58:45;4.57;;;0.70;;
3601;SDS011;1815;50.950;6.920;2022-07-29T02:01:13;2.43;;;0.70;;
3601;SDS011;1815;50.950;6.920;2022-07-29T02:03:42;3.00;;;1.00;;
3601;SDS011;1815;50.950;6.920;2022-07-29T02:06:10;3.17;;;0.80;;
3601;SDS011;1815;50.950;6.920;2022-07-29T02:08:37;5.13;;;0.80;;
3601;SDS011;1815;50.950;6.920;2022-07-29T02:11:04;2.53;;;0.90;;
3601;SDS011;1815;50.950;6.920;2022-07-29T02:13:32;2.93;;;0.80;;
3601;SDS011;1815;50.950;6.920;2022-07-29T02:16:00;3.60;;;0.90;;
3601;SDS011;1815;50.950;6.920;2022-07-29T02:18:30;3.20;;;0.93;;
3601;SDS011;1815;50.950;6.920;2022-07-29T02:20:56;3.83;;;1.10;;
3601;SDS011;1815;50.950;6.920;2022-07-29T02:23:24;3.77;;;1.10;;
3601;SDS011;1815;50.950;6.920;2022-07-29T02:25:51;3.20;;;0.90;;
3601;SDS011;1815;50.950;6.920;2022-07-29T02:28:19;2.20;;;0.90;;
3601;SDS011;1815;50.950;6.920;2022-07-29T02:30:47;1.40;;;0.70;;
3601;SDS011;1815;50.950;6.920;2022-07-29T02:33:15;2.47;;;0.90;;
3601;SDS011;1815;50.950;6.920;2022-07-29T02:35:44;3.30;;;1.10;;
3601;SDS011;1815;50.950;6.920;2022-07-29T02:38:12;6.93;;;2.37;;
3601;SDS011;1815;50.950;6.920;2022-07-29T02:41:00;2.57;;;0.90;;
3601;SDS011;1815;50.950;6.920;2022-07-29T02:43:29;3.47;;;0.90;;
3601;SDS011;1815;50.950;6.920;2022-07-29T02:45:56;2.60;;;1.00;;
3601;SDS011;1815;50.950;6.920;2022-07-29T02:48:36;3.80;;;1.20;;
3601;SDS011;1815;50.950;6.920;2022-07-29T02:51:06;2.67;;;0.93;;
3601;SDS011;1815;50.950;6.920;2022-07-29T02:53:37;1.67;;;1.00;;
3601;SDS011;1815;50.950;6.920;2022-07-29T02:56:08;2.63;;;1.00;;
3601;SDS011;1815;50.950;6.920;2022-07-29T02:58:39;4.20;;;0.90;;
3601;SDS011;1815;50.950;6.920;2022-07-29T03:01:08;3.83;;;0.90;;
3601;SDS011;1815;50.950;6.920;2022-07-29T03:03:39;1.90;;;0.80;;
3601;SDS011;1815;50.950;6.920;2022-07-29T03:06:08;2.07;;;1.00;;
3601;SDS011;1815;50.950;6.920;2022-07-29T03:08:37;2.67;;;1.10;;
3601;SDS011;1815;50.950;6.920;2022-07-29T03:11:02;2.80;;;1.20;;
3601;SDS011;1815;50.950;6.920;2022-07-29T03:13:29;3.37;;;1.00;;
3601;SDS011;1815;50.950;6.920;2022-07-29T03:15:57;4.40;;;0.87;;
3601;SDS011;1815;50.950;6.920;2022-07-29T03:18:24;4.13;;;1.03;;
3601;SDS011;1815;50.950;6.920;2022-07-29T03:20:50;8.37;;;1.10;;
3601;SDS011;1815;50.950;6.920;2022-07-29T03:23:20;2.57;;;1.07;;
3601;SDS011;1815;50.950;6.920;2022-07-29T03:25:48;4.67;;;0.80;;
3601;SDS011;1815;50.950;6.920;2022-07-29T03:28:14;2.33;;;1.03;;
3601;SDS011;1815;50.950;6.920;2022-07-29T03:30:40;6.57;;;1.60;;
3601;SDS011;1815;50.950;6.920;2022-07-29T03:33:06;2.43;;;0.90;;
3601;SDS011;1815;50.950;6.920;2022-07-29T03:35:31;2.73;;;1.00;;
3601;SDS011;1815;50.950;6.920;2022-07-29T03:37:58;1.70;;;0.80;;
3601;SDS011;1815;50.950;6.920;2022-07-29T03:40:31;3.17;;;1.30;;
3601;SDS011;1815;50.950;6.920;2022-07-29T03:43:11;4.80;;;1.47;;
3601;SDS011;1815;50.950;6.920;2022-07-29T03:45:39;2.53;;;0.83;;
3601;SDS011;1815;50.950;6.920;2022-07-29T03:48:10;2.00;;;0.73;;
3601;SDS011;1815;50.950;6.920;2022-07-29T03:50:39;2.57;;;0.90;;
3601;SDS011;1815;50.950;6.920;2022-07-29T03:53:05;2.73;;;0.80;;
3601;SDS011;1815;50.950;6.920;2022-07-29T03:55:32;3.93;;;1.37;;
3601;SDS011;1815;50.950;6.920;2022-07-29T03:58:02;4.07;;;0.90;;
3601;SDS011;1815;50.950;6.920;2022-07-29T04:00:29;3.53;;;1.27;;
3601;SDS011;1815;50.950;6.920;2022-07-29T04:02:56;4.50;;;1.00;;
3601;SDS011;1815;50.950;6.920;2022-07-29T04:05:22;5.67;;;0.90;;
3601;SDS011;1815;50.950;6.920;2022-07-29T04:07:48;2.43;;;1.10;;
3601;SDS011;1815;50.950;6.920;2022-07-29T04:10:16;2.17;;;0.90;;
3601;SDS011;1815;50.950;6.920;2022-07-29T04:12:44;2.10;;;1.00;;
3601;SDS011;1815;50.950;6.920;2022-07-29T04:15:10;1.80;;;0.90;;
3601;SDS011;1815;50.950;6.920;2022-07-29T04:17:36;2.80;;;1.07;;
3601;SDS011;1815;50.950;6.920;2022-07-29T04:20:02;4.90;;;1.00;;
3601;SDS011;1815;50.950;6.920;2022-07-29T04:22:29;3.33;;;1.20;;
3601;SDS011;1815;50.950;6.920;2022-07-29T04:24:55;3.23;;;1.23;;
3601;SDS011;1815;50.950;6.920;2022-07-29T04:27:21;3.60;;;1.00;;
3601;SDS011;1815;50.950;6.920;2022-07-29T04:29:47;4.93;;;1.00;;
3601;SDS011;1815;50.950;6.920;2022-07-29T04:32:13;3.50;;;1.00;;
3601;SDS011;1815;50.950;6.920;2022-07-29T04:34:38;5.47;;;0.90;;
3601;SDS011;1815;50.950;6.920;2022-07-29T04:37:04;4.50;;;1.20;;
3601;SDS011;1815;50.950;6.920;2022-07-29T04:39:30;3.80;;;1.03;;
3601;SDS011;1815;50.950;6.920;2022-07-29T04:41:56;5.73;;;1.13;;
3601;SDS011;1815;50.950;6.920;2022-07-29T04:44:22;3.40;;;1.10;;
3601;SDS011;1815;50.950;6.920;2022-07-29T04:46:48;4.03;;;1.27;;
3601;SDS011;1815;50.950;6.920;2022-07-29T04:49:13;2.67;;;0.90;;
3601;SDS011;1815;50.950;6.920;2022-07-29T04:51:39;2.50;;;1.10;;
3601;SDS011;1815;50.950;6.920;2022-07-29T04:54:05;1.83;;;0.73;;
3601;SDS011;1815;50.950;6.920;2022-07-29T04:56:31;1.67;;;0.80;;
3601;SDS011;1815;50.950;6.920;2022-07-29T04:58:57;2.00;;;1.00;;
3601;SDS011;1815;50.950;6.920;2022-07-29T05:01:22;4.00;;;1.43;;
3601;SDS011;1815;50.950;6.920;2022-07-29T05:03:48;2.27;;;0.93;;
3601;SDS011;1815;50.950;6.920;2022-07-29T05:06:14;3.10;;;1.13;;
3601;SDS011;1815;50.950;6.920;2022-07-29T05:08:40;4.10;;;0.87;;
3601;SDS011;1815;50.950;6.920;2022-07-29T05:11:05;5.13;;;1.53;;
3601;SDS011;1815;50.950;6.920;2022-07-29T05:13:31;4.00;;;1.00;;
3601;SDS011;1815;50.950;6.920;2022-07-29T05:15:57;7.67;;;0.90;;
3601;SDS011;1815;50.950;6.920;2022-07-29T05:18:24;2.30;;;1.00;;
3601;SDS011;1815;50.950;6.920;2022-07-29T05:20:50;2.67;;;1.20;;
3601;SDS011;1815;50.950;6.920;2022-07-29T05:23:16;4.07;;;1.40;;
3601;SDS011;1815;50.950;6.920;2022-07-29T05:25:43;2.13;;;0.90;;
3601;SDS011;1815;50.950;6.920;2022-07-29T05:28:09;5.37;;;1.27;;
3601;SDS011;1815;50.950;6.920;2022-07-29T05:30:35;4.80;;;1.10;;
3601;SDS011;1815;50.950;6.920;2022-07-29T05:33:00;6.80;;;1.60;;
3601;SDS011;1815;50.950;6.920;2022-07-29T05:35:26;4.80;;;1.57;;
3601;SDS011;1815;50.950;6.920;2022-07-29T05:37:53;3.20;;;1.47;;
3601;SDS011;1815;50.950;6.920;2022-07-29T05:40:19;3.63;;;1.10;;
3601;SDS011;1815;50.950;6.920;2022-07-29T05:42:45;4.10;;;1.40;;
3601;SDS011;1815;50.950;6.920;2022-07-29T05:45:11;5.37;;;1.20;;
3601;SDS011;1815;50.950;6.920;2022-07-29T05:47:37;4.07;;;1.00;;
3601;SDS011;1815;50.950;6.920;2022-07-29T05:50:02;4.77;;;0.83;;
3601;SDS011;1815;50.950;6.920;2022-07-29T05:52:29;3.20;;;0.93;;
3601;SDS011;1815;50.950;6.920;2022-07-29T05:54:55;3.90;;;1.10;;
3601;SDS011;1815;50.950;6.920;2022-07-29T05:57:22;2.83;;;1.67;;
3601;SDS011;1815;50.950;6.920;2022-07-29T05:59:50;2.53;;;1.10;;
3601;SDS011;1815;50.950;6.920;2022-07-29T06:02:16;2.27;;;1.10;;
3601;SDS011;1815;50.950;6.920;2022-07-29T06:04:42;1.83;;;0.90;;
3601;SDS011;1815;50.950;6.920;2022-07-29T06:07:08;2.10;;;0.80;;
3601;SDS011;1815;50.950;6.920;2022-07-29T06:09:34;2.50;;;1.07;;
3601;SDS011;1815;50.950;6.920;2022-07-29T06:12:00;3.50;;;0.90;;
3601;SDS011;1815;50.950;6.920;2022-07-29T06:14:26;2.10;;;0.90;;
3601;SDS011;1815;50.950;6.920;2022-07-29T06:16:53;2.50;;;0.93;;
3601;SDS011;1815;50.950;6.920;2022-07-29T06:19:19;2.77;;;1.00;;
3601;SDS011;1815;50.950;6.920;2022-07-29T06:21:45;3.60;;;1.00;;
3601;SDS011;1815;50.950;6.920;2022-07-29T06:24:12;6.00;;;1.40;;
3601;SDS011;1815;50.950;6.920;2022-07-29T06:26:39;2.63;;;0.90;;
3601;SDS011;1815;50.950;6.920;2022-07-29T06:29:06;2.63;;;0.97;;
3601;SDS011;1815;50.950;6.920;2022-07-29T06:31:32;2.63;;;0.90;;
3601;SDS011;1815;50.950;6.920;2022-07-29T06:33:57;2.73;;;0.70;;
3601;SDS011;1815;50.950;6.920;2022-07-29T06:36:24;3.63;;;1.30;;
3601;SDS011;1815;50.950;6.920;2022-07-29T06:38:51;5.77;;;1.10;;
3601;SDS011;1815;50.950;6.920;2022-07-29T06:41:16;3.93;;;1.50;;
3601;SDS011;1815;50.950;6.920;2022-07-29T06:43:43;4.50;;;1.20;;
3601;SDS011;1815;50.950;6.920;2022-07-29T06:46:11;2.43;;;1.00;;
3601;SDS011;1815;50.950;6.920;2022-07-29T06:48:39;3.10;;;1.43;;
3601;SDS011;1815;50.950;6.920;2022-07-29T06:51:07;3.50;;;1.20;;
3601;SDS011;1815;50.950;6.920;2022-07-29T06:53:34;2.73;;;0.90;;
3601;SDS011;1815;50.950;6.920;2022-07-29T06:56:01;3.20;;;0.97;;
3601;SDS011;1815;50.950;6.920;2022-07-29T06:58:28;4.33;;;1.00;;
3601;SDS011;1815;50.950;6.920;2022-07-29T07:00:58;2.77;;;0.90;;
3601;SDS011;1815;50.950;6.920;2022-07-29T07:03:27;2.47;;;1.00;;
3601;SDS011;1815;50.950;6.920;2022-07-29T07:05:53;4.40;;;0.97;;
3601;SDS011;1815;50.950;6.920;2022-07-29T07:08:20;3.40;;;1.40;;
3601;SDS011;1815;50.950;6.920;2022-07-29T07:10:47;1.90;;;1.00;;
3601;SDS011;1815;50.950;6.920;2022-07-29T07:13:13;5.63;;;1.67;;
3601;SDS011;1815;50.950;6.920;2022-07-29T07:15:39;3.77;;;1.37;;
3601;SDS011;1815;50.950;6.920;2022-07-29T07:18:05;5.43;;;1.80;;
3601;SDS011;1815;50.950;6.920;2022-07-29T07:20:32;2.47;;;1.00;;
3601;SDS011;1815;50.950;6.920;2022-07-29T07:22:59;2.90;;;1.27;;
3601;SDS011;1815;50.950;6.920;2022-07-29T07:25:26;2.43;;;1.33;;
3601;SDS011;1815;50.950;6.920;2022-07-29T07:27:52;4.27;;;1.23;;
3601;SDS011;1815;50.950;6.920;2022-07-29T07:30:18;3.77;;;1.30;;
3601;SDS011;1815;50.950;6.920;2022-07-29T07:32:44;3.00;;;1.93;;
3601;SDS011;1815;50.950;6.920;2022-07-29T07:35:10;4.60;;;1.70;;
3601;SDS011;1815;50.950;6.920;2022-07-29T07:37:36;3.33;;;1.10;;
3601;SDS011;1815;50.950;6.920;2022-07-29T07:40:03;4.30;;;1.37;;
3601;SDS011;1815;50.950;6.920;2022-07-29T07:42:29;3.00;;;1.13;;
3601;SDS011;1815;50.950;6.920;2022-07-29T07:44:55;2.90;;;1.40;;
3601;SDS011;1815;50.950;6.920;2022-07-29T07:47:21;5.80;;;1.60;;
3601;SDS011;1815;50.950;6.920;2022-07-29T07:49:48;2.40;;;1.40;;
3601;SDS011;1815;50.950;6.920;2022-07-29T07:52:16;3.80;;;1.30;;
3601;SDS011;1815;50.950;6.920;2022-07-29T07:54:43;2.53;;;1.20;;
3601;SDS011;1815;50.950;6.920;2022-07-29T07:57:12;3.40;;;1.30;;
3601;SDS011;1815;50.950;6.920;2022-07-29T07:59:39;3.13;;;1.10;;
3601;SDS011;1815;50.950;6.920;2022-07-29T08:02:06;4.70;;;1.00;;
3601;SDS011;1815;50.950;6.920;2022-07-29T08:04:32;9.43;;;1.70;;
3601;SDS011;1815;50.950;6.920;2022-07-29T08:06:58;8.93;;;7.23;;
3601;SDS011;1815;50.950;6.920;2022-07-29T08:09:25;15.30;;;11.53;;
3601;SDS011;1815;50.950;6.920;2022-07-29T08:11:52;17.60;;;12.67;;
3601;SDS011;1815;50.950;6.920;2022-07-29T08:14:18;21.20;;;14.83;;
3601;SDS011;1815;50.950;6.920;2022-07-29T08:16:44;17.23;;;12.07;;
3601;SDS011;1815;50.950;6.920;2022-07-29T08:19:10;14.70;;;10.13;;
3601;SDS011;1815;50.950;6.920;2022-07-29T08:21:36;15.17;;;9.73;;
3601;SDS011;1815;50.950;6.920;2022-07-29T08:24:02;11.27;;;6.77;;
3601;SDS011;1815;50.950;6.920;2022-07-29T08:26:47;6.97;;;3.40;;
3601;SDS011;1815;50.950;6.920;2022-07-29T08:29:13;5.80;;;2.90;;
3601;SDS011;1815;50.950;6.920;2022-07-29T08:31:38;6.70;;;1.90;;
3601;SDS011;1815;50.950;6.920;2022-07-29T08:34:05;6.17;;;1.90;;
3601;SDS011;1815;50.950;6.920;2022-07-29T08:36:31;5.90;;;1.70;;
3601;SDS011;1815;50.950;6.920;2022-07-29T08:38:58;5.77;;;1.90;;
3601;SDS011;1815;50.950;6.920;2022-07-29T08:41:25;3.70;;;1.50;;
3601;SDS011;1815;50.950;6.920;2022-07-29T08:43:51;3.87;;;1.70;;
3601;SDS011;1815;50.950;6.920;2022-07-29T08:46:17;4.10;;;1.63;;
3601;SDS011;1815;50.950;6.920;2022-07-29T08:48:44;2.53;;;1.37;;
3601;SDS011;1815;50.950;6.920;2022-07-29T08:51:12;9.70;;;1.40;;
3601;SDS011;1815;50.950;6.920;2022-07-29T08:53:44;5.33;;;1.40;;
3601;SDS011;1815;50.950;6.920;2022-07-29T08:56:14;5.93;;;1.60;;
3601;SDS011;1815;50.950;6.920;2022-07-29T08:58:44;5.70;;;2.40;;
3601;SDS011;1815;50.950;6.920;2022-07-29T09:01:12;5.17;;;1.80;;
3601;SDS011;1815;50.950;6.920;2022-07-29T09:03:41;4.40;;;1.77;;
3601;SDS011;1815;50.950;6.920;2022-07-29T09:06:11;4.60;;;1.90;;
3601;SDS011;1815;50.950;6.920;2022-07-29T09:08:39;4.00;;;1.60;;
3601;SDS011;1815;50.950;6.920;2022-07-29T09:11:05;5.27;;;1.47;;
3601;SDS011;1815;50.950;6.920;2022-07-29T09:13:32;6.07;;;1.97;;
3601;SDS011;1815;50.950;6.920;2022-07-29T09:15:58;6.17;;;1.90;;
3601;SDS011;1815;50.950;6.920;2022-07-29T09:18:44;3.53;;;2.27;;
3601;SDS011;1815;50.950;6.920;2022-07-29T09:21:11;3.80;;;1.67;;
3601;SDS011;1815;50.950;6.920;2022-07-29T09:24:11;4.53;;;1.90;;
3601;SDS011;1815;50.950;6.920;2022-07-29T09:26:38;4.63;;;1.70;;
3601;SDS011;1815;50.950;6.920;2022-07-29T09:29:13;3.07;;;1.70;;
3601;SDS011;1815;50.950;6.920;2022-07-29T09:31:41;3.90;;;1.90;;
3601;SDS011;1815;50.950;6.920;2022-07-29T09:34:09;8.47;;;2.23;;
3601;SDS011;1815;50.950;6.920;2022-07-29T09:36:39;5.60;;;1.80;;
3601;SDS011;1815;50.950;6.920;2022-07-29T09:39:06;7.20;;;3.00;;
3601;SDS011;1815;50.950;6.920;2022-07-29T09:41:48;3.77;;;1.80;;
3601;SDS011;1815;50.950;6.920;2022-07-29T09:44:18;4.40;;;2.10;;
3601;SDS011;1815;50.950;6.920;2022-07-29T09:47:00;4.33;;;1.90;;
3601;SDS011;1815;50.950;6.920;2022-07-29T09:49:34;9.00;;;1.97;;
3601;SDS011;1815;50.950;6.920;2022-07-29T09:52:05;4.77;;;1.60;;
3601;SDS011;1815;50.950;6.920;2022-07-29T09:54:32;2.90;;;1.50;;
3601;SDS011;1815;50.950;6.920;2022-07-29T09:57:05;4.17;;;1.40;;
3601;SDS011;1815;50.950;6.920;2022-07-29T09:59:34;5.03;;;1.40;;
3601;SDS011;1815;50.950;6.920;2022-07-29T10:02:00;5.87;;;1.40;;
3601;SDS011;1815;50.950;6.920;2022-07-29T10:04:36;2.70;;;1.43;;
3601;SDS011;1815;50.950;6.920;2022-07-29T10:07:05;3.90;;;1.40;;
3601;SDS011;1815;50.950;6.920;2022-07-29T10:09:32;3.20;;;1.73;;
3601;SDS011;1815;50.950;6.920;2022-07-29T10:12:11;6.43;;;1.27;;
3601;SDS011;1815;50.950;6.920;2022-07-29T10:14:40;4.40;;;1.20;;
3601;SDS011;1815;50.950;6.920;2022-07-29T10:17:07;2.83;;;1.20;;
3601;SDS011;1815;50.950;6.920;2022-07-29T10:19:35;4.40;;;2.00;;
3601;SDS011;1815;50.950;6.920;2022-07-29T10:22:03;2.30;;;1.57;;
3601;SDS011;1815;50.950;6.920;2022-07-29T10:24:31;2.60;;;1.50;;
3601;SDS011;1815;50.950;6.920;2022-07-29T10:26:58;2.23;;;1.40;;
3601;SDS011;1815;50.950;6.920;2022-07-29T10:29:26;2.73;;;1.87;;
3601;SDS011;1815;50.950;6.920;2022-07-29T10:40:32;3.77;;;1.70;;
3601;SDS011;1815;50.950;6.920;2022-07-29T10:43:31;3.80;;;1.30;;
3601;SDS011;1815;50.950;6.920;2022-07-29T10:46:01;4.23;;;1.60;;
3601;SDS011;1815;50.950;6.920;2022-07-29T10:48:27;2.87;;;1.50;;
3601;SDS011;1815;50.950;6.920;2022-07-29T10:50:58;4.93;;;1.33;;
3601;SDS011;1815;50.950;6.920;2022-07-29T10:53:50;5.90;;;1.37;;
3601;SDS011;1815;50.950;6.920;2022-07-29T10:59:24;2.50;;;1.60;;
3601;SDS011;1815;50.950;6.920;2022-07-29T11:01:43;2.30;;;1.50;;
3601;SDS011;1815;50.950;6.920;2022-07-29T11:04:09;3.40;;;1.53;;
3601;SDS011;1815;50.950;6.920;2022-07-29T11:09:27;4.83;;;1.73;;
3601;SDS011;1815;50.950;6.920;2022-07-29T11:11:55;3.20;;;1.07;;
3601;SDS011;1815;50.950;6.920;2022-07-29T11:17:18;2.97;;;1.33;;
3601;SDS011;1815;50.950;6.920;2022-07-29T11:19:44;4.27;;;2.10;;
3601;SDS011;1815;50.950;6.920;2022-07-29T11:22:10;3.90;;;1.87;;
3601;SDS011;1815;50.950;6.920;2022-07-29T11:27:41;2.80;;;1.10;;
3601;SDS011;1815;50.950;6.920;2022-07-29T11:30:08;2.70;;;1.07;;
3601;SDS011;1815;50.950;6.920;2022-07-29T11:32:44;3.50;;;1.30;;
3601;SDS011;1815;50.950;6.920;2022-07-29T11:37:36;4.37;;;1.67;;
3601;SDS011;1815;50.950;6.920;2022-07-29T11:45:00;2.90;;;1.20;;
3601;SDS011;1815;50.950;6.920;2022-07-29T11:47:33;2.87;;;1.07;;
3601;SDS011;1815;50.950;6.920;2022-07-29T11:50:02;4.73;;;1.40;;
3601;SDS011;1815;50.950;6.920;2022-07-29T11:52:34;4.43;;;1.37;;
3601;SDS011;1815;50.950;6.920;2022-07-29T11:57:51;2.53;;;1.10;;
3601;SDS011;1815;50.950;6.920;2022-07-29T12:00:22;2.73;;;1.00;;
3601;SDS011;1815;50.950;6.920;2022-07-29T12:02:49;4.07;;;1.93;;
3601;SDS011;1815;50.950;6.920;2022-07-29T12:05:16;4.50;;;1.20;;
3601;SDS011;1815;50.950;6.920;2022-07-29T12:07:42;4.00;;;1.30;;
3601;SDS011;1815;50.950;6.920;2022-07-29T12:10:07;4.03;;;1.63;;
3601;SDS011;1815;50.950;6.920;2022-07-29T12:12:34;2.80;;;1.37;;
3601;SDS011;1815;50.950;6.920;2022-07-29T12:15:10;4.53;;;1.30;;
3601;SDS011;1815;50.950;6.920;2022-07-29T12:17:45;3.73;;;1.93;;
3601;SDS011;1815;50.950;6.920;2022-07-29T12:20:11;2.57;;;1.40;;
3601;SDS011;1815;50.950;6.920;2022-07-29T12:22:39;2.60;;;1.43;;
3601;SDS011;1815;50.950;6.920;2022-07-29T12:25:08;3.73;;;1.13;;
3601;SDS011;1815;50.950;6.920;2022-07-29T12:27:35;3.50;;;1.23;;
3601;SDS011;1815;50.950;6.920;2022-07-29T12:30:07;2.03;;;1.00;;
3601;SDS011;1815;50.950;6.920;2022-07-29T12:32:39;3.70;;;1.43;;
3601;SDS011;1815;50.950;6.920;2022-07-29T12:35:10;2.63;;;1.00;;
3601;SDS011;1815;50.950;6.920;2022-07-29T12:37:41;3.53;;;1.10;;
3601;SDS011;1815;50.950;6.920;2022-07-29T12:40:09;2.17;;;0.90;;
3601;SDS011;1815;50.950;6.920;2022-07-29T12:42:38;2.17;;;0.80;;
3601;SDS011;1815;50.950;6.920;2022-07-29T12:45:04;2.33;;;0.80;;
3601;SDS011;1815;50.950;6.920;2022-07-29T12:47:31;1.90;;;0.90;;
3601;SDS011;1815;50.950;6.920;2022-07-29T12:50:10;3.17;;;1.17;;
3601;SDS011;1815;50.950;6.920;2022-07-29T12:52:40;2.03;;;0.90;;
3601;SDS011;1815;50.950;6.920;2022-07-29T12:55:06;3.23;;;1.03;;
3601;SDS011;1815;50.950;6.920;2022-07-29T12:57:32;2.17;;;0.90;;
3601;SDS011;1815;50.950;6.920;2022-07-29T13:00:11;2.90;;;1.00;;
3601;SDS011;1815;50.950;6.920;2022-07-29T13:02:39;2.97;;;1.10;;
3601;SDS011;1815;50.950;6.920;2022-07-29T13:05:06;2.87;;;1.10;;
3601;SDS011;1815;50.950;6.920;2022-07-29T13:07:33;3.97;;;1.10;;
3601;SDS011;1815;50.950;6.920;2022-07-29T13:10:11;2.70;;;1.17;;
3601;SDS011;1815;50.950;6.920;2022-07-29T13:15:31;1.90;;;1.00;;
3601;SDS011;1815;50.950;6.920;2022-07-29T13:17:58;1.80;;;1.00;;
3601;SDS011;1815;50.950;6.920;2022-07-29T13:20:25;3.30;;;1.50;;
3601;SDS011;1815;50.950;6.920;2022-07-29T13:22:57;2.90;;;1.30;;
3601;SDS011;1815;50.950;6.920;2022-07-29T13:25:31;2.67;;;1.00;;
3601;SDS011;1815;50.950;6.920;2022-07-29T13:27:58;4.20;;;1.53;;
3601;SDS011;1815;50.950;6.920;2022-07-29T13:30:25;3.33;;;1.30;;
3601;SDS011;1815;50.950;6.920;2022-07-29T13:32:51;3.37;;;1.80;;
3601;SDS011;1815;50.950;6.920;2022-07-29T13:35:18;6.60;;;2.17;;
3601;SDS011;1815;50.950;6.920;2022-07-29T13:37:46;3.13;;;2.20;;
3601;SDS011;1815;50.950;6.920;2022-07-29T13:40:12;4.10;;;1.83;;
3601;SDS011;1815;50.950;6.920;2022-07-29T13:42:39;4.20;;;1.20;;
3601;SDS011;1815;50.950;6.920;2022-07-29T13:45:06;2.83;;;1.37;;
3601;SDS011;1815;50.950;6.920;2022-07-29T13:47:32;4.10;;;1.60;;
3601;SDS011;1815;50.950;6.920;2022-07-29T13:49:59;3.37;;;1.33;;
3601;SDS011;1815;50.950;6.920;2022-07-29T13:52:27;5.40;;;1.87;;
3601;SDS011;1815;50.950;6.920;2022-07-29T13:54:53;4.73;;;1.90;;
3601;SDS011;1815;50.950;6.920;2022-07-29T13:57:19;4.53;;;2.17;;
3601;SDS011;1815;50.950;6.920;2022-07-29T13:59:45;4.47;;;2.40;;
3601;SDS011;1815;50.950;6.920;2022-07-29T14:02:11;3.20;;;2.00;;
3601;SDS011;1815;50.950;6.920;2022-07-29T14:04:37;3.10;;;1.60;;
3601;SDS011;1815;50.950;6.920;2022-07-29T14:07:03;4.50;;;2.27;;
3601;SDS011;1815;50.950;6.920;2022-07-29T14:09:29;5.63;;;1.60;;
3601;SDS011;1815;50.950;6.920;2022-07-29T14:11:55;2.97;;;1.40;;
3601;SDS011;1815;50.950;6.920;2022-07-29T14:14:21;6.90;;;1.40;;
3601;SDS011;1815;50.950;6.920;2022-07-29T14:16:47;4.40;;;1.60;;
3601;SDS011;1815;50.950;6.920;2022-07-29T14:19:13;8.03;;;1.80;;
3601;SDS011;1815;50.950;6.920;2022-07-29T14:21:38;4.90;;;1.90;;
3601;SDS011;1815;50.950;6.920;2022-07-29T14:24:04;5.13;;;1.20;;
3601;SDS011;1815;50.950;6.920;2022-07-29T14:26:31;5.37;;;1.57;;
3601;SDS011;1815;50.950;6.920;2022-07-29T14:28:57;3.73;;;1.50;;
3601;SDS011;1815;50.950;6.920;2022-07-29T14:31:22;4.17;;;2.13;;
3601;SDS011;1815;50.950;6.920;2022-07-29T14:33:48;5.30;;;2.30;;
3601;SDS011;1815;50.950;6.920;2022-07-29T14:36:14;4.33;;;1.50;;
3601;SDS011;1815;50.950;6.920;2022-07-29T14:38:40;5.10;;;1.63;;
3601;SDS011;1815;50.950;6.920;2022-07-29T14:41:06;4.40;;;2.00;;
3601;SDS011;1815;50.950;6.920;2022-07-29T14:43:33;2.87;;;1.37;;
3601;SDS011;1815;50.950;6.920;2022-07-29T14:46:00;2.40;;;1.20;;
3601;SDS011;1815;50.950;6.920;2022-07-29T14:48:26;3.60;;;1.50;;
3601;SDS011;1815;50.950;6.920;2022-07-29T14:50:52;6.80;;;1.50;;
3601;SDS011;1815;50.950;6.920;2022-07-29T14:53:17;2.20;;;1.40;;
3601;SDS011;1815;50.950;6.920;2022-07-29T14:55:43;4.80;;;1.40;;
3601;SDS011;1815;50.950;6.920;2022-07-29T14:58:09;3.70;;;1.00;;
3601;SDS011;1815;50.950;6.920;2022-07-29T15:00:35;3.70;;;1.30;;
3601;SDS011;1815;50.950;6.920;2022-07-29T15:03:02;5.27;;;1.50;;
3601;SDS011;1815;50.950;6.920;2022-07-29T15:05:31;2.90;;;1.33;;
3601;SDS011;1815;50.950;6.920;2022-07-29T15:07:57;4.27;;;1.20;;
3601;SDS011;1815;50.950;6.920;2022-07-29T15:10:24;2.90;;;1.20;;
3601;SDS011;1815;50.950;6.920;2022-07-29T15:12:52;2.47;;;1.10;;
3601;SDS011;1815;50.950;6.920;2022-07-29T15:15:18;4.37;;;1.20;;
3601;SDS011;1815;50.950;6.920;2022-07-29T15:17:44;5.70;;;1.20;;
3601;SDS011;1815;50.950;6.920;2022-07-29T15:20:11;3.03;;;1.30;;
3601;SDS011;1815;50.950;6.920;2022-07-29T15:22:38;3.37;;;1.47;;
3601;SDS011;1815;50.950;6.920;2022-07-29T15:25:04;2.13;;;1.17;;
3601;SDS011;1815;50.950;6.920;2022-07-29T15:27:30;3.90;;;1.33;;
3601;SDS011;1815;50.950;6.920;2022-07-29T15:29:56;2.93;;;1.53;;
3601;SDS011;1815;50.950;6.920;2022-07-29T15:32:22;3.50;;;1.60;;
3601;SDS011;1815;50.950;6.920;2022-07-29T15:34:48;2.33;;;1.47;;
3601;SDS011;1815;50.950;6.920;2022-07-29T15:37:14;2.90;;;1.23;;
3601;SDS011;1815;50.950;6.920;2022-07-29T15:39:40;5.97;;;1.43;;
3601;SDS011;1815;50.950;6.920;2022-07-29T15:42:06;3.70;;;1.30;;
3601;SDS011;1815;50.950;6.920;2022-07-29T15:44:32;3.43;;;1.13;;
3601;SDS011;1815;50.950;6.920;2022-07-29T15:46:58;2.53;;;1.10;;
3601;SDS011;1815;50.950;6.920;2022-07-29T15:49:31;3.20;;;1.23;;
3601;SDS011;1815;50.950;6.920;2022-07-29T15:52:03;2.07;;;0.90;;
3601;SDS011;1815;50.950;6.920;2022-07-29T15:54:34;2.80;;;1.17;;
3601;SDS011;1815;50.950;6.920;2022-07-29T15:57:01;3.33;;;1.30;;
3601;SDS011;1815;50.950;6.920;2022-07-29T15:59:28;2.33;;;0.90;;
3601;SDS011;1815;50.950;6.920;2022-07-29T16:01:54;1.90;;;0.90;;
3601;SDS011;1815;50.950;6.920;2022-07-29T16:04:20;2.43;;;1.10;;
3601;SDS011;1815;50.950;6.920;2022-07-29T16:06:47;3.10;;;1.30;;
3601;SDS011;1815;50.950;6.920;2022-07-29T16:09:14;1.67;;;0.90;;
3601;SDS011;1815;50.950;6.920;2022-07-29T16:11:41;3.10;;;0.97;;